createdAt,value
2018-09-23T00:01:20.612Z,2.20
2018-09-23T00:03:24.466Z,1.40
2018-09-23T00:05:28.144Z,1.60
2018-09-23T00:07:31.731Z,1.90
2018-09-23T00:09:35.268Z,1.83
2018-09-23T00:11:39.097Z,1.63
2018-09-23T00:13:42.631Z,1.40
2018-09-23T00:15:46.370Z,1.30
2018-09-23T00:17:49.992Z,1.60
2018-09-23T00:19:53.558Z,1.70
2018-09-23T00:21:57.127Z,1.43
2018-09-23T00:24:00.678Z,1.43
2018-09-23T00:26:04.439Z,1.33
2018-09-23T00:28:08.032Z,1.37
2018-09-23T00:30:11.559Z,1.00
2018-09-23T00:32:15.129Z,1.60
2018-09-23T00:34:18.736Z,1.10
2018-09-23T00:36:22.303Z,1.20
2018-09-23T00:38:26.041Z,1.40
2018-09-23T00:40:29.606Z,1.27
2018-09-23T00:42:33.184Z,1.20
2018-09-23T00:44:36.723Z,1.50
2018-09-23T00:46:40.493Z,1.53
2018-09-23T00:48:44.066Z,1.70
2018-09-23T00:50:47.620Z,1.13
2018-09-23T00:52:51.312Z,1.40
2018-09-23T00:54:54.834Z,1.40
2018-09-23T00:56:58.377Z,1.53
2018-09-23T00:59:02.081Z,1.30
2018-09-23T01:01:05.622Z,1.47
2018-09-23T01:03:09.170Z,1.50
2018-09-23T01:05:12.677Z,1.40
2018-09-23T01:07:16.263Z,1.30
2018-09-23T01:09:20.747Z,1.37
2018-09-23T01:11:24.424Z,1.37
2018-09-23T01:13:27.976Z,1.60
2018-09-23T01:15:31.563Z,1.40
2018-09-23T01:17:35.274Z,1.30
2018-09-23T01:19:38.916Z,1.30
2018-09-23T01:21:42.488Z,1.37
2018-09-23T01:23:46.080Z,1.70
2018-09-23T01:25:49.650Z,1.47
2018-09-23T01:27:53.175Z,1.30
2018-09-23T01:29:56.890Z,1.67
2018-09-23T01:32:00.449Z,1.50
2018-09-23T01:34:04.180Z,1.40
2018-09-23T01:36:08.048Z,1.70
2018-09-23T01:38:11.774Z,1.90
2018-09-23T01:40:15.455Z,1.70
2018-09-23T01:42:19.006Z,1.73
2018-09-23T01:44:22.562Z,1.60
2018-09-23T01:46:26.206Z,1.50
2018-09-23T01:48:29.742Z,2.00
2018-09-23T01:50:33.247Z,1.60
2018-09-23T01:52:36.813Z,1.53
2018-09-23T01:54:40.471Z,1.83
2018-09-23T01:56:44.015Z,1.90
2018-09-23T01:58:47.641Z,2.37
2018-09-23T02:00:51.193Z,1.80
2018-09-23T02:03:01.183Z,1.70
2018-09-23T02:05:04.873Z,1.90
2018-09-23T02:07:08.554Z,1.83
2018-09-23T02:09:12.124Z,1.93
2018-09-23T02:11:15.658Z,1.97
2018-09-23T02:13:19.254Z,1.60
2018-09-23T02:15:22.867Z,1.80
2018-09-23T02:17:26.452Z,1.87
2018-09-23T02:19:29.993Z,1.80
2018-09-23T02:21:33.569Z,1.63
2018-09-23T02:23:37.094Z,2.07
2018-09-23T02:25:40.645Z,2.10
2018-09-23T02:27:44.397Z,1.90
2018-09-23T02:29:47.938Z,1.97
2018-09-23T02:31:51.647Z,2.00
2018-09-23T02:33:55.166Z,2.00
2018-09-23T02:35:58.711Z,2.00
2018-09-23T02:38:02.224Z,1.50
2018-09-23T02:40:05.841Z,2.37
2018-09-23T02:42:09.460Z,2.20
2018-09-23T02:44:12.982Z,2.17
2018-09-23T02:46:16.638Z,2.00
2018-09-23T02:48:20.153Z,1.90
2018-09-23T02:50:23.663Z,2.30
2018-09-23T02:52:27.239Z,2.10
2018-09-23T02:54:30.771Z,2.37
2018-09-23T02:56:34.320Z,2.23
2018-09-23T02:58:37.882Z,2.20
2018-09-23T03:00:41.719Z,2.30
2018-09-23T03:02:45.251Z,2.33
2018-09-23T03:04:48.798Z,2.37
2018-09-23T03:06:52.312Z,2.60
2018-09-23T03:08:55.842Z,2.70
2018-09-23T03:10:59.396Z,2.40
2018-09-23T03:13:02.948Z,2.60
2018-09-23T03:15:06.799Z,2.63
2018-09-23T03:17:10.317Z,2.90
2018-09-23T03:19:14.015Z,3.20
2018-09-23T03:21:17.549Z,3.20
2018-09-23T03:23:21.086Z,3.23
2018-09-23T03:25:24.811Z,3.20
2018-09-23T03:27:28.367Z,3.60
2018-09-23T03:29:32.043Z,3.60
2018-09-23T03:31:35.576Z,2.97
2018-09-23T03:33:39.101Z,3.60
2018-09-23T03:35:42.628Z,3.33
2018-09-23T03:37:46.177Z,3.83
2018-09-23T03:39:49.876Z,3.07
2018-09-23T03:41:53.418Z,3.40
2018-09-23T03:43:57.056Z,3.50
2018-09-23T03:46:00.578Z,3.60
2018-09-23T03:48:04.198Z,3.20
2018-09-23T03:50:07.963Z,3.43
2018-09-23T03:52:11.523Z,2.90
2018-09-23T03:54:15.122Z,3.60
2018-09-23T03:56:18.679Z,3.10
2018-09-23T03:58:22.213Z,3.20
2018-09-23T04:00:25.825Z,3.67
2018-09-23T04:02:29.497Z,3.27
2018-09-23T04:04:33.025Z,3.03
2018-09-23T04:06:36.719Z,3.13
2018-09-23T04:08:40.591Z,3.10
2018-09-23T04:10:44.144Z,2.50
2018-09-23T04:12:47.651Z,2.40
2018-09-23T04:14:51.212Z,2.40
2018-09-23T04:16:54.790Z,2.30
2018-09-23T04:18:58.306Z,2.70
2018-09-23T04:21:01.953Z,2.33
2018-09-23T04:23:05.527Z,2.47
2018-09-23T04:25:09.164Z,2.23
2018-09-23T04:27:12.739Z,2.03
2018-09-23T04:29:16.586Z,2.10
2018-09-23T04:31:20.222Z,2.40
2018-09-23T04:33:23.762Z,2.33
2018-09-23T04:35:27.278Z,1.97
2018-09-23T04:37:30.851Z,2.27
2018-09-23T04:39:34.365Z,2.50
2018-09-23T04:41:37.876Z,2.40
2018-09-23T04:43:41.395Z,2.40
2018-09-23T04:45:44.990Z,2.57
2018-09-23T04:47:48.547Z,2.43
2018-09-23T04:49:52.120Z,2.33
2018-09-23T04:51:55.653Z,2.53
2018-09-23T04:53:59.150Z,2.47
2018-09-23T04:56:02.884Z,2.40
2018-09-23T04:58:06.422Z,2.40
2018-09-23T05:00:09.988Z,2.40
2018-09-23T05:02:13.628Z,2.40
2018-09-23T05:04:17.144Z,2.67
2018-09-23T05:06:20.908Z,2.50
2018-09-23T05:08:24.388Z,2.40
2018-09-23T05:10:28.112Z,2.57
2018-09-23T05:12:31.654Z,2.33
2018-09-23T05:14:35.387Z,2.63
2018-09-23T05:16:38.996Z,2.53
2018-09-23T05:18:42.543Z,2.67
2018-09-23T05:20:46.039Z,2.40
2018-09-23T05:22:49.656Z,2.40
2018-09-23T05:24:53.212Z,2.67
2018-09-23T05:26:56.711Z,2.50
2018-09-23T05:29:00.428Z,2.50
2018-09-23T05:31:04.111Z,2.70
2018-09-23T05:33:07.865Z,2.20
2018-09-23T05:35:11.510Z,2.43
2018-09-23T05:37:15.096Z,2.30
2018-09-23T05:39:18.767Z,2.40
2018-09-23T05:41:22.306Z,2.60
2018-09-23T05:43:25.888Z,2.40
2018-09-23T05:45:29.393Z,2.40
2018-09-23T05:47:32.883Z,2.83
2018-09-23T05:49:36.976Z,2.20
2018-09-23T05:51:40.495Z,2.37
2018-09-23T05:53:44.152Z,2.27
2018-09-23T05:55:47.828Z,2.90
2018-09-23T05:57:51.431Z,2.70
2018-09-23T05:59:54.994Z,2.30
2018-09-23T06:01:58.480Z,2.30
2018-09-23T06:04:01.987Z,2.50
2018-09-23T06:06:05.673Z,2.23
2018-09-23T06:08:09.197Z,2.50
2018-09-23T06:10:12.812Z,2.37
2018-09-23T06:12:16.319Z,2.63
2018-09-23T06:14:19.945Z,2.37
2018-09-23T06:16:23.467Z,2.60
2018-09-23T06:18:27.039Z,2.13
2018-09-23T06:20:30.735Z,2.30
2018-09-23T06:22:34.289Z,2.00
2018-09-23T06:24:37.756Z,2.20
2018-09-23T06:26:41.276Z,2.20
2018-09-23T06:28:44.938Z,2.27
2018-09-23T06:30:48.883Z,2.30
2018-09-23T06:32:52.381Z,2.40
2018-09-23T06:34:55.906Z,2.47
2018-09-23T06:36:59.498Z,2.60
2018-09-23T06:39:03.049Z,2.00
2018-09-23T06:41:06.673Z,1.97
2018-09-23T06:43:10.267Z,2.03
2018-09-23T06:45:13.927Z,2.10
2018-09-23T06:47:17.439Z,2.00
2018-09-23T06:49:21.045Z,2.10
2018-09-23T06:51:24.564Z,2.13
2018-09-23T06:53:28.112Z,2.30
2018-09-23T06:55:31.629Z,2.23
2018-09-23T06:57:35.224Z,2.07
2018-09-23T06:59:38.892Z,2.20
2018-09-23T07:01:42.390Z,1.97
2018-09-23T07:03:46.005Z,2.20
2018-09-23T07:05:49.528Z,2.17
2018-09-23T07:07:53.181Z,2.50
2018-09-23T07:09:56.837Z,2.40
2018-09-23T07:12:00.351Z,2.83
2018-09-23T07:14:03.918Z,2.43
2018-09-23T07:16:07.829Z,2.30
2018-09-23T07:18:11.392Z,1.60
2018-09-23T07:20:14.886Z,2.07
2018-09-23T07:22:18.384Z,2.37
2018-09-23T07:24:21.880Z,1.80
2018-09-23T07:26:25.513Z,2.03
2018-09-23T07:28:28.999Z,2.10
2018-09-23T07:30:32.852Z,2.00
2018-09-23T07:32:36.547Z,2.30
2018-09-23T07:34:40.063Z,2.30
2018-09-23T07:36:43.839Z,1.70
2018-09-23T07:38:47.347Z,1.83
2018-09-23T07:40:50.907Z,2.10
2018-09-23T07:42:54.507Z,1.70
2018-09-23T07:44:58.039Z,1.90
2018-09-23T07:47:01.645Z,1.70
2018-09-23T07:49:05.536Z,1.70
2018-09-23T07:51:09.096Z,2.00
2018-09-23T07:53:12.668Z,1.90
2018-09-23T07:55:16.140Z,2.40
2018-09-23T07:57:19.855Z,2.10
2018-09-23T07:59:23.374Z,2.37
2018-09-23T08:01:26.876Z,1.93
2018-09-23T08:03:30.414Z,2.20
2018-09-23T08:05:33.942Z,2.27
2018-09-23T08:07:37.846Z,1.63
2018-09-23T08:09:41.520Z,1.83
2018-09-23T08:11:45.029Z,1.63
2018-09-23T08:13:48.805Z,1.70
2018-09-23T08:15:52.135Z,1.50
2018-09-23T08:17:55.715Z,1.87
2018-09-23T08:19:59.410Z,1.40
2018-09-23T08:22:02.928Z,1.30
2018-09-23T08:24:06.536Z,1.30
2018-09-23T08:26:10.051Z,1.63
2018-09-23T08:28:13.714Z,1.47
2018-09-23T08:30:17.231Z,1.40
2018-09-23T08:32:20.759Z,1.60
2018-09-23T08:34:24.280Z,1.43
2018-09-23T08:38:43.691Z,1.50
2018-09-23T08:40:47.191Z,1.30
2018-09-23T08:42:50.808Z,1.17
2018-09-23T08:44:54.331Z,1.90
2018-09-23T08:46:57.839Z,1.30
2018-09-23T08:49:01.351Z,1.60
2018-09-23T08:51:05.032Z,1.60
2018-09-23T08:53:08.567Z,1.40
2018-09-23T08:55:12.107Z,1.20
2018-09-23T08:57:15.824Z,1.50
2018-09-23T08:59:19.289Z,1.20
2018-09-23T09:01:22.832Z,1.50
2018-09-23T09:03:26.351Z,2.37
2018-09-23T09:05:29.939Z,1.80
2018-09-23T09:07:33.510Z,1.70
2018-09-23T09:09:37.004Z,1.30
2018-09-23T09:11:40.595Z,1.60
2018-09-23T09:13:44.066Z,1.13
2018-09-23T09:15:47.554Z,1.63
2018-09-23T09:17:51.211Z,1.60
2018-09-23T09:19:54.825Z,1.30
2018-09-23T09:21:58.447Z,1.40
2018-09-23T09:24:02.021Z,1.10
2018-09-23T09:26:05.527Z,1.50
2018-09-23T09:28:09.117Z,1.47
2018-09-23T09:30:12.629Z,1.50
2018-09-23T09:32:16.185Z,1.37
2018-09-23T09:34:19.848Z,1.30
2018-09-23T09:36:23.351Z,1.30
2018-09-23T09:38:27.015Z,1.17
2018-09-23T09:40:30.474Z,1.10
2018-09-23T09:42:34.124Z,1.10
2018-09-23T09:44:37.747Z,1.20
2018-09-23T09:46:41.375Z,1.30
2018-09-23T09:48:44.858Z,1.23
2018-09-23T09:50:48.526Z,1.60
2018-09-23T09:52:52.037Z,1.10
2018-09-23T09:54:55.791Z,1.20
2018-09-23T09:56:59.425Z,1.03
2018-09-23T09:59:02.998Z,1.23
2018-09-23T10:01:06.861Z,1.23
2018-09-23T10:03:10.473Z,1.47
2018-09-23T10:05:14.191Z,1.20
2018-09-23T10:07:17.847Z,1.30
2018-09-23T10:09:21.473Z,1.37
2018-09-23T10:11:25.060Z,1.20
2018-09-23T10:13:28.754Z,1.30
2018-09-23T10:15:32.308Z,1.10
2018-09-23T10:17:35.996Z,1.00
2018-09-23T10:19:39.674Z,1.17
2018-09-23T10:21:43.170Z,1.20
2018-09-23T10:23:46.781Z,1.20
2018-09-23T10:25:50.252Z,1.20
2018-09-23T10:27:53.828Z,1.30
2018-09-23T10:29:57.425Z,1.17
2018-09-23T10:32:00.910Z,1.10
2018-09-23T10:34:04.436Z,1.00
2018-09-23T10:36:08.016Z,1.10
2018-09-23T10:38:11.520Z,1.20
2018-09-23T10:40:15.152Z,1.10
2018-09-23T10:42:18.769Z,1.10
2018-09-23T10:44:22.289Z,1.00
2018-09-23T10:46:25.968Z,0.80
2018-09-23T10:48:29.690Z,1.13
2018-09-23T10:50:33.511Z,0.83
2018-09-23T10:52:37.172Z,0.90
2018-09-23T10:54:40.728Z,0.90
2018-09-23T10:56:44.243Z,1.10
2018-09-23T10:58:47.975Z,0.70
2018-09-23T11:00:51.561Z,0.73
2018-09-23T11:02:55.203Z,0.80
2018-09-23T11:04:58.859Z,0.83
2018-09-23T11:07:02.418Z,0.90
2018-09-23T11:09:06.943Z,1.00
2018-09-23T11:11:10.452Z,0.73
2018-09-23T11:13:13.968Z,0.70
2018-09-23T11:15:17.626Z,0.73
2018-09-23T11:17:21.208Z,0.70
2018-09-23T11:19:24.712Z,0.60
2018-09-23T11:21:28.233Z,0.70
2018-09-23T11:23:32.007Z,0.60
2018-09-23T11:25:35.554Z,0.70
2018-09-23T11:27:39.421Z,0.67
2018-09-23T11:29:42.988Z,0.50
2018-09-23T11:31:46.579Z,0.70
2018-09-23T11:33:50.156Z,0.70
2018-09-23T11:35:53.772Z,0.80
2018-09-23T11:37:57.318Z,0.88
2018-09-23T11:40:00.914Z,0.90
2018-09-23T11:42:04.364Z,0.60
2018-09-23T11:44:08.208Z,0.70
2018-09-23T11:46:11.801Z,0.80
2018-09-23T11:48:15.372Z,0.50
2018-09-23T11:50:18.871Z,0.60
2018-09-23T11:52:22.477Z,0.50
2018-09-23T11:54:26.112Z,0.70
2018-09-23T11:56:29.839Z,0.57
2018-09-23T11:58:33.395Z,0.47
2018-09-23T12:00:37.003Z,0.60
2018-09-23T12:02:40.765Z,0.60
2018-09-23T12:04:44.304Z,0.50
2018-09-23T12:06:47.919Z,0.47
2018-09-23T12:08:51.489Z,0.40
2018-09-23T12:10:55.122Z,0.45
2018-09-23T12:12:58.687Z,0.60
2018-09-23T12:15:02.247Z,0.60
2018-09-23T12:17:06.068Z,0.47
2018-09-23T12:19:09.598Z,0.40
2018-09-23T12:21:13.151Z,0.60
2018-09-23T12:23:16.671Z,0.50
2018-09-23T12:25:20.416Z,0.40
2018-09-23T12:27:24.013Z,0.40
2018-09-23T12:29:27.604Z,0.45
2018-09-23T12:31:31.226Z,0.50
2018-09-23T12:33:34.984Z,0.50
2018-09-23T12:35:38.532Z,0.47
2018-09-23T12:37:42.135Z,0.50
2018-09-23T12:39:46.031Z,0.60
2018-09-23T12:41:49.817Z,0.50
2018-09-23T12:43:53.353Z,0.50
2018-09-23T12:45:57.477Z,0.60
2018-09-23T12:48:01.113Z,0.50
2018-09-23T12:50:05.012Z,0.50
2018-09-23T12:52:08.546Z,0.60
2018-09-23T12:54:12.250Z,0.50
2018-09-23T12:56:15.760Z,0.60
2018-09-23T12:58:19.357Z,0.42
2018-09-23T13:00:22.904Z,0.47
2018-09-23T13:02:26.483Z,0.40
2018-09-23T13:04:30.000Z,0.40
2018-09-23T13:06:33.512Z,0.50
2018-09-23T13:08:37.015Z,0.40
2018-09-23T13:10:40.858Z,0.50
2018-09-23T13:12:44.464Z,0.50
2018-09-23T13:14:47.948Z,0.40
2018-09-23T13:16:51.526Z,0.47
2018-09-23T13:18:55.065Z,0.42
2018-09-23T13:20:58.634Z,0.60
2018-09-23T13:23:02.151Z,0.42
2018-09-23T13:25:05.717Z,0.40
2018-09-23T13:27:09.284Z,0.50
2018-09-23T13:29:12.804Z,0.40
2018-09-23T13:31:16.547Z,0.40
2018-09-23T13:33:20.078Z,0.60
2018-09-23T13:35:23.730Z,0.40
2018-09-23T13:37:27.384Z,0.60
2018-09-23T13:39:31.163Z,0.50
2018-09-23T13:41:34.747Z,0.45
2018-09-23T13:43:38.519Z,0.30
2018-09-23T13:45:42.053Z,0.68
2018-09-23T13:47:45.576Z,0.40
2018-09-23T13:49:49.151Z,0.50
2018-09-23T13:51:52.716Z,0.40
2018-09-23T13:53:56.510Z,0.50
2018-09-23T13:56:00.138Z,0.40
2018-09-23T13:58:03.759Z,0.33
2018-09-23T14:00:07.547Z,0.40
2018-09-23T14:02:11.079Z,0.50
2018-09-23T14:04:14.703Z,0.45
2018-09-23T14:06:18.364Z,0.50
2018-09-23T14:08:21.947Z,0.50
2018-09-23T14:10:25.394Z,0.50
2018-09-23T14:12:28.966Z,0.60
2018-09-23T14:14:32.604Z,0.50
2018-09-23T14:16:36.123Z,0.50
2018-09-23T14:18:39.683Z,0.57
2018-09-23T14:20:43.248Z,0.45
2018-09-23T14:22:46.772Z,0.50
2018-09-23T14:24:50.328Z,0.60
2018-09-23T14:26:53.848Z,0.50
2018-09-23T14:28:57.395Z,0.70
2018-09-23T14:31:00.972Z,0.57
2018-09-23T14:33:04.513Z,0.50
2018-09-23T14:35:08.127Z,0.53
2018-09-23T14:37:11.659Z,0.57
2018-09-23T14:39:15.334Z,0.80
2018-09-23T14:41:18.847Z,0.50
2018-09-23T14:43:22.343Z,0.60
2018-09-23T14:45:26.039Z,0.60
2018-09-23T14:47:29.537Z,0.50
2018-09-23T14:49:33.081Z,0.60
2018-09-23T14:51:36.632Z,0.70
2018-09-23T14:53:40.198Z,0.50
2018-09-23T14:55:43.756Z,0.37
2018-09-23T14:57:47.444Z,0.50
2018-09-23T14:59:54.364Z,0.50
2018-09-23T15:01:54.728Z,0.60
2018-09-23T15:03:58.487Z,0.50
2018-09-23T15:06:02.135Z,0.50
2018-09-23T15:08:06.056Z,0.40
2018-09-23T15:10:09.556Z,0.50
2018-09-23T15:12:13.151Z,0.57
2018-09-23T15:14:16.752Z,0.70
2018-09-23T15:16:20.313Z,0.65
2018-09-23T15:18:23.992Z,0.60
2018-09-23T15:20:27.556Z,0.60
2018-09-23T15:22:31.063Z,0.55
2018-09-23T15:24:34.567Z,0.60
2018-09-23T15:26:38.085Z,0.50
2018-09-23T15:28:41.608Z,0.88
2018-09-23T15:30:45.342Z,0.40
2018-09-23T15:32:49.073Z,0.50
2018-09-23T15:34:52.788Z,0.70
2018-09-23T15:36:56.291Z,0.62
2018-09-23T15:38:59.837Z,0.50
2018-09-23T15:41:03.356Z,0.62
2018-09-23T15:43:07.192Z,0.70
2018-09-23T15:45:10.789Z,0.50
2018-09-23T15:47:14.378Z,0.57
2018-09-23T15:49:18.231Z,0.57
2018-09-23T15:51:21.771Z,0.40
2018-09-23T15:53:25.432Z,0.70
2018-09-23T15:55:29.089Z,0.60
2018-09-23T15:57:32.612Z,0.55
2018-09-23T15:59:36.171Z,0.57
2018-09-23T16:01:39.665Z,0.70
2018-09-23T16:03:43.259Z,0.88
2018-09-23T16:05:46.818Z,0.60
2018-09-23T16:07:50.491Z,0.70
2018-09-23T16:09:53.956Z,0.50
2018-09-23T16:11:57.467Z,0.63
2018-09-23T16:14:00.937Z,0.60
2018-09-23T16:16:04.480Z,0.60
2018-09-23T16:18:08.017Z,0.80
2018-09-23T16:20:11.801Z,0.60
2018-09-23T16:22:15.404Z,0.40
2018-09-23T16:24:21.933Z,0.72
2018-09-23T16:26:25.501Z,0.78
2018-09-23T16:28:29.200Z,0.70
2018-09-23T16:30:32.748Z,0.75
2018-09-23T16:32:36.275Z,0.62
2018-09-23T16:34:39.859Z,0.87
2018-09-23T16:36:43.383Z,0.62
2018-09-23T16:38:46.979Z,0.60
2018-09-23T16:40:50.502Z,0.78
2018-09-23T16:42:54.167Z,0.90
2018-09-23T16:44:57.749Z,0.50
2018-09-23T16:47:01.323Z,0.60
2018-09-23T16:49:04.872Z,0.63
2018-09-23T16:51:08.485Z,0.60
2018-09-23T16:53:12.049Z,0.65
2018-09-23T16:55:15.784Z,0.60
2018-09-23T16:57:19.367Z,0.57
2018-09-23T16:59:22.868Z,0.80
2018-09-23T17:01:26.521Z,0.53
2018-09-23T17:03:30.045Z,0.70
2018-09-23T17:05:33.587Z,0.60
2018-09-23T17:07:37.140Z,0.62
2018-09-23T17:09:40.776Z,0.80
2018-09-23T17:11:44.438Z,0.87
2018-09-23T17:13:47.995Z,0.60
2018-09-23T17:15:51.641Z,0.70
2018-09-23T17:17:55.380Z,0.70
2018-09-23T17:19:58.877Z,0.50
2018-09-23T17:22:02.441Z,0.83
2018-09-23T17:24:06.104Z,0.90
2018-09-23T17:26:09.652Z,0.87
2018-09-23T17:28:13.234Z,1.17
2018-09-23T17:30:16.774Z,0.70
2018-09-23T17:32:20.239Z,0.97
2018-09-23T17:34:23.988Z,1.10
2018-09-23T17:36:27.504Z,1.33
2018-09-23T17:38:31.202Z,1.30
2018-09-23T17:40:34.922Z,1.40
2018-09-23T17:42:38.522Z,1.30
2018-09-23T17:44:42.267Z,1.30
2018-09-23T17:46:45.826Z,1.50
2018-09-23T17:48:49.447Z,1.43
2018-09-23T17:50:53.010Z,1.30
2018-09-23T17:52:56.739Z,1.30
2018-09-23T17:55:00.543Z,1.00
2018-09-23T17:57:04.157Z,1.57
2018-09-23T17:59:07.726Z,1.23
2018-09-23T18:01:11.468Z,1.23
2018-09-23T18:03:15.066Z,0.97
2018-09-23T18:05:18.599Z,1.20
2018-09-23T18:07:22.213Z,1.03
2018-09-23T18:09:25.757Z,0.90
2018-09-23T18:11:29.482Z,1.00
2018-09-23T18:13:33.010Z,1.00
2018-09-23T18:15:36.712Z,1.93
2018-09-23T18:17:40.288Z,1.40
2018-09-23T18:19:43.849Z,0.80
2018-09-23T18:21:47.599Z,1.23
2018-09-23T18:23:51.119Z,0.90
2018-09-23T18:25:54.778Z,1.30
2018-09-23T18:27:58.329Z,0.90
2018-09-23T18:30:01.912Z,1.00
2018-09-23T18:32:05.601Z,0.90
2018-09-23T18:34:09.229Z,0.80
2018-09-23T18:36:12.804Z,1.80
2018-09-23T18:38:16.558Z,1.13
2018-09-23T18:40:20.863Z,1.00
2018-09-23T18:42:24.563Z,1.43
2018-09-23T18:44:28.272Z,0.80
2018-09-23T18:46:31.923Z,0.90
2018-09-23T18:48:35.518Z,0.70
2018-09-23T18:50:39.236Z,0.97
2018-09-23T18:52:42.953Z,1.20
2018-09-23T18:54:51.921Z,1.00
2018-09-23T18:56:55.589Z,1.10
2018-09-23T18:58:59.210Z,0.90
2018-09-23T19:01:02.807Z,0.90
2018-09-23T19:03:06.554Z,1.03
2018-09-23T19:05:10.125Z,0.70
2018-09-23T19:07:13.869Z,0.83
2018-09-23T19:09:17.434Z,0.80
2018-09-23T19:11:21.204Z,0.90
2018-09-23T19:13:30.019Z,0.80
2018-09-23T19:15:34.157Z,0.80
2018-09-23T19:17:37.742Z,1.10
2018-09-23T19:19:46.510Z,0.90
2018-09-23T19:21:50.181Z,0.80
2018-09-23T19:23:53.895Z,0.80
2018-09-23T19:25:57.553Z,0.87
2018-09-23T19:28:03.964Z,0.80
2018-09-23T19:30:07.816Z,0.80
2018-09-23T19:32:11.390Z,0.70
2018-09-23T19:34:15.086Z,0.70
2018-09-23T19:36:18.600Z,0.90
2018-09-23T19:38:22.092Z,0.70
2018-09-23T19:40:25.781Z,0.63
2018-09-23T19:42:29.592Z,1.00
2018-09-23T19:44:33.104Z,0.70
2018-09-23T19:46:36.742Z,0.80
2018-09-23T19:48:40.388Z,0.87
2018-09-23T19:50:43.912Z,0.93
2018-09-23T19:52:47.741Z,0.80
2018-09-23T19:54:51.279Z,0.80
2018-09-23T19:56:54.912Z,0.90
2018-09-23T19:58:58.504Z,0.90
2018-09-23T20:01:02.247Z,0.90
2018-09-23T20:03:05.961Z,0.90
2018-09-23T20:05:09.492Z,1.40
2018-09-23T20:07:13.021Z,1.03
2018-09-23T20:09:16.807Z,1.20
2018-09-23T20:11:20.385Z,1.20
2018-09-23T20:13:23.998Z,1.10
2018-09-23T20:15:27.677Z,1.00
2018-09-23T20:17:31.181Z,1.07
2018-09-23T20:19:34.772Z,1.60
2018-09-23T20:21:38.288Z,1.40
2018-09-23T20:23:41.864Z,1.20
2018-09-23T20:25:45.430Z,1.20
2018-09-23T20:27:48.914Z,1.50
2018-09-23T20:29:52.467Z,2.20
2018-09-23T20:31:56.027Z,2.10
2018-09-23T20:33:59.552Z,2.00
2018-09-23T20:36:03.381Z,2.17
2018-09-23T20:38:06.884Z,2.47
2018-09-23T20:40:10.444Z,2.00
2018-09-23T20:42:14.062Z,2.40
2018-09-23T20:44:17.609Z,2.00
2018-09-23T20:46:21.358Z,1.90
2018-09-23T20:48:24.892Z,1.40
2018-09-23T20:50:28.666Z,1.47
2018-09-23T20:52:32.243Z,1.20
2018-09-23T20:54:35.922Z,1.23
2018-09-23T20:56:39.567Z,1.20
2018-09-23T20:58:43.147Z,1.40
2018-09-23T21:00:46.660Z,1.27
2018-09-23T21:02:50.304Z,0.87
2018-09-23T21:04:53.880Z,0.87
2018-09-23T21:06:57.425Z,0.87
2018-09-23T21:09:00.961Z,0.80
2018-09-23T21:11:04.545Z,0.80
2018-09-23T21:13:08.104Z,0.93
2018-09-23T21:15:11.691Z,0.80
2018-09-23T21:17:15.200Z,0.70
2018-09-23T21:19:18.712Z,1.00
2018-09-23T21:21:22.228Z,0.80
2018-09-23T21:23:25.808Z,0.90
2018-09-23T21:25:29.345Z,0.90
2018-09-23T21:27:32.910Z,0.80
2018-09-23T21:29:36.397Z,0.73
2018-09-23T21:31:39.928Z,1.00
2018-09-23T21:33:43.503Z,0.90
2018-09-23T21:35:47.268Z,1.00
2018-09-23T21:37:50.799Z,0.90
2018-09-23T21:39:54.415Z,1.00
2018-09-23T21:41:57.936Z,1.10
2018-09-23T21:44:01.477Z,1.20
2018-09-23T21:46:05.036Z,0.90
2018-09-23T21:48:08.636Z,1.10
2018-09-23T21:50:12.224Z,1.10
2018-09-23T21:52:15.883Z,1.13
2018-09-23T21:54:19.482Z,1.00
2018-09-23T21:56:23.020Z,0.80
2018-09-23T21:58:26.540Z,1.27
2018-09-23T22:00:35.449Z,1.23
2018-09-23T22:02:39.499Z,1.10
2018-09-23T22:04:43.069Z,1.20
2018-09-23T22:06:46.896Z,1.20
2018-09-23T22:08:50.462Z,1.37
2018-09-23T22:10:54.016Z,1.03
2018-09-23T22:12:57.626Z,1.07
2018-09-23T22:15:01.176Z,0.97
2018-09-23T22:17:04.745Z,0.80
2018-09-23T22:19:08.255Z,0.80
2018-09-23T22:21:11.897Z,1.00
2018-09-23T22:23:15.372Z,1.00
2018-09-23T22:25:18.916Z,1.00
2018-09-23T22:27:22.594Z,0.90
2018-09-23T22:29:26.084Z,1.10
2018-09-23T22:31:29.628Z,1.00
2018-09-23T22:33:33.135Z,0.97
2018-09-23T22:35:36.813Z,1.10
2018-09-23T22:37:40.908Z,0.90
2018-09-23T22:39:44.463Z,0.93
2018-09-23T22:41:48.032Z,0.90
2018-09-23T22:43:51.540Z,0.90
2018-09-23T22:45:55.087Z,1.00
2018-09-23T22:47:58.647Z,0.83
2018-09-23T22:50:02.527Z,1.00
2018-09-23T22:52:06.072Z,0.83
2018-09-23T22:54:09.598Z,0.80
2018-09-23T22:56:13.120Z,0.73
2018-09-23T22:58:16.699Z,1.00
2018-09-23T23:00:20.273Z,0.90
2018-09-23T23:02:23.816Z,1.00
2018-09-23T23:04:27.381Z,0.80
2018-09-23T23:06:30.876Z,0.80
2018-09-23T23:08:34.475Z,1.00
2018-09-23T23:10:37.955Z,1.03
2018-09-23T23:12:41.489Z,1.10
2018-09-23T23:14:44.996Z,1.00
2018-09-23T23:16:48.571Z,1.20
2018-09-23T23:18:52.052Z,1.30
2018-09-23T23:20:55.735Z,1.50
2018-09-23T23:22:59.222Z,1.20
2018-09-23T23:25:02.757Z,1.00
2018-09-23T23:27:06.584Z,1.00
2018-09-23T23:29:10.223Z,1.17
2018-09-23T23:31:13.704Z,1.10
2018-09-23T23:33:17.288Z,1.50
2018-09-23T23:35:20.737Z,1.20
2018-09-23T23:37:24.235Z,1.20
2018-09-23T23:39:27.731Z,1.10
2018-09-23T23:41:31.261Z,1.30
2018-09-23T23:43:34.932Z,1.20
2018-09-23T23:45:38.572Z,1.37
2018-09-23T23:47:42.225Z,1.27
2018-09-23T23:49:45.789Z,1.03
2018-09-23T23:51:49.596Z,0.90
2018-09-23T23:53:53.240Z,0.90
2018-09-23T23:55:56.804Z,1.00
2018-09-23T23:58:00.299Z,0.73
